createdAt,value
2023-01-20T00:01:40.199Z,21.20
2023-01-20T00:04:07.388Z,24.40
2023-01-20T00:06:34.791Z,25.80
2023-01-20T00:09:03.119Z,25.70
2023-01-20T00:11:30.513Z,25.90
2023-01-20T00:13:59.486Z,24.90
2023-01-20T00:16:26.858Z,30.40
2023-01-20T00:18:54.317Z,25.80
2023-01-20T00:21:21.654Z,26.20
2023-01-20T00:23:50.345Z,31.40
2023-01-20T00:26:19.594Z,33.00
2023-01-20T00:28:47.314Z,28.30
2023-01-20T00:31:28.656Z,27.40
2023-01-20T00:33:57.352Z,24.70
2023-01-20T00:36:25.008Z,29.10
2023-01-20T00:38:52.318Z,30.20
2023-01-20T00:41:19.683Z,25.10
2023-01-20T00:43:46.980Z,24.90
2023-01-20T00:46:14.235Z,25.10
2023-01-20T00:48:41.614Z,29.30
2023-01-20T00:51:09.270Z,25.80
2023-01-20T00:53:36.751Z,25.00
2023-01-20T00:56:04.332Z,28.40
2023-01-20T00:58:31.627Z,31.70
2023-01-20T01:00:59.189Z,26.50
2023-01-20T01:03:28.307Z,27.80
2023-01-20T01:05:55.612Z,25.60
2023-01-20T01:08:22.826Z,24.90
2023-01-20T01:10:50.034Z,22.70
2023-01-20T01:13:17.296Z,23.10
2023-01-20T01:15:50.633Z,25.10
2023-01-20T01:18:17.937Z,24.90
2023-01-20T01:20:45.355Z,22.50
2023-01-20T01:23:13.038Z,24.00
2023-01-20T01:25:40.247Z,24.40
2023-01-20T01:28:07.591Z,25.00
2023-01-20T01:30:34.802Z,25.00
2023-01-20T01:33:02.070Z,23.40
2023-01-20T01:35:29.312Z,22.80
2023-01-20T01:37:56.536Z,29.90
2023-01-20T01:40:24.659Z,27.80
2023-01-20T01:42:51.898Z,24.80
2023-01-20T01:45:22.071Z,26.50
2023-01-20T01:47:50.867Z,26.50
2023-01-20T01:50:47.845Z,24.80
2023-01-20T01:53:15.098Z,24.60
2023-01-20T01:55:45.396Z,25.60
2023-01-20T01:58:15.031Z,30.70
2023-01-20T02:00:43.402Z,28.60
2023-01-20T02:03:10.671Z,28.80
2023-01-20T02:05:37.957Z,31.60
2023-01-20T02:08:05.837Z,27.40
2023-01-20T02:10:33.096Z,26.60
2023-01-20T02:13:00.387Z,26.00
2023-01-20T02:15:38.267Z,28.00
2023-01-20T02:18:27.178Z,23.10
2023-01-20T02:21:01.390Z,26.20
2023-01-20T02:23:53.368Z,20.70
2023-01-20T02:26:46.284Z,23.90
2023-01-20T02:29:39.911Z,24.00
2023-01-20T02:34:56.312Z,22.80
2023-01-20T02:37:29.036Z,25.30
2023-01-20T02:40:26.497Z,21.00
2023-01-20T02:43:32.183Z,21.90
2023-01-20T02:46:12.415Z,22.00
2023-01-20T02:48:47.530Z,21.50
2023-01-20T02:51:54.989Z,21.80
2023-01-20T02:54:22.270Z,23.60
2023-01-20T02:56:49.490Z,22.90
2023-01-20T02:59:18.950Z,23.50
2023-01-20T03:01:51.159Z,20.30
2023-01-20T03:04:20.419Z,23.10
2023-01-20T03:06:53.116Z,24.40
2023-01-20T03:09:27.590Z,24.50
2023-01-20T03:12:01.119Z,22.00
2023-01-20T03:14:28.369Z,25.50
2023-01-20T03:16:55.659Z,24.90
2023-01-20T03:19:23.120Z,21.00
2023-01-20T03:21:50.500Z,24.30
2023-01-20T03:24:17.738Z,20.70
2023-01-20T03:26:45.045Z,22.20
2023-01-20T03:29:12.928Z,20.50
2023-01-20T03:31:43.447Z,21.00
2023-01-20T03:34:12.969Z,22.50
2023-01-20T03:36:40.901Z,24.10
2023-01-20T03:39:08.224Z,23.40
2023-01-20T03:41:47.862Z,22.20
2023-01-20T03:44:24.639Z,23.90
2023-01-20T03:47:08.889Z,20.70
2023-01-20T03:49:37.371Z,24.30
2023-01-20T03:52:09.560Z,22.00
2023-01-20T03:54:46.019Z,22.90
2023-01-20T03:57:16.162Z,23.70
2023-01-20T03:59:43.692Z,22.50
2023-01-20T04:02:11.123Z,23.30
2023-01-20T04:04:40.057Z,22.60
2023-01-20T04:07:10.042Z,25.00
2023-01-20T04:09:39.805Z,23.10
2023-01-20T04:12:07.377Z,24.00
2023-01-20T04:14:37.787Z,24.70
2023-01-20T04:17:05.145Z,23.40
2023-01-20T04:19:32.435Z,23.80
2023-01-20T04:22:11.971Z,23.20
2023-01-20T04:24:46.206Z,28.00
2023-01-20T04:27:13.504Z,24.70
2023-01-20T04:29:41.783Z,24.80
2023-01-20T04:32:10.347Z,22.40
2023-01-20T04:34:37.550Z,23.10
2023-01-20T04:37:04.777Z,22.80
2023-01-20T04:39:31.992Z,22.00
2023-01-20T04:41:59.362Z,23.50
2023-01-20T04:44:26.581Z,21.60
2023-01-20T04:46:58.423Z,23.70
2023-01-20T04:49:25.683Z,24.40
2023-01-20T04:51:52.873Z,23.10
2023-01-20T04:54:20.238Z,23.10
2023-01-20T04:56:50.593Z,27.20
2023-01-20T04:59:17.917Z,22.10
2023-01-20T05:01:45.212Z,24.00
2023-01-20T05:04:12.492Z,20.90
2023-01-20T05:06:42.947Z,25.20
2023-01-20T05:09:13.231Z,22.90
2023-01-20T05:11:40.614Z,21.10
2023-01-20T05:14:07.957Z,23.30
2023-01-20T05:16:35.226Z,22.20
2023-01-20T05:19:02.460Z,24.50
2023-01-20T05:21:29.884Z,24.20
2023-01-20T05:23:57.389Z,22.40
2023-01-20T05:26:25.026Z,24.40
2023-01-20T05:28:52.908Z,24.90
2023-01-20T05:31:20.245Z,25.60
2023-01-20T05:33:47.655Z,27.80
2023-01-20T05:36:14.889Z,24.90
2023-01-20T05:38:42.152Z,22.10
2023-01-20T05:41:10.106Z,29.10
2023-01-20T05:43:37.354Z,21.40
2023-01-20T05:46:05.126Z,30.60
2023-01-20T05:48:32.580Z,27.10
2023-01-20T05:50:59.856Z,26.50
2023-01-20T05:53:27.045Z,22.30
2023-01-20T05:56:04.714Z,22.10
2023-01-20T05:58:32.138Z,25.80
2023-01-20T06:01:11.120Z,28.40
2023-01-20T06:03:38.645Z,23.00
2023-01-20T06:06:08.041Z,22.90
2023-01-20T06:08:35.892Z,28.20
2023-01-20T06:11:03.252Z,27.40
2023-01-20T06:13:30.472Z,50.30
2023-01-20T06:15:57.803Z,28.80
2023-01-20T06:18:25.036Z,28.30
2023-01-20T06:20:52.285Z,25.50
2023-01-20T06:23:20.454Z,24.30
2023-01-20T06:25:47.637Z,21.00
2023-01-20T06:28:14.879Z,21.40
2023-01-20T06:30:43.481Z,26.90
2023-01-20T06:33:11.148Z,23.50
2023-01-20T06:35:38.506Z,27.00
2023-01-20T06:38:05.746Z,25.60
2023-01-20T06:40:33.046Z,27.30
2023-01-20T06:43:00.366Z,26.40
2023-01-20T06:45:28.975Z,27.50
2023-01-20T06:47:56.175Z,27.80
2023-01-20T06:50:23.516Z,26.40
2023-01-20T06:52:50.904Z,28.30
2023-01-20T06:55:18.248Z,26.80
2023-01-20T06:57:45.488Z,25.50
2023-01-20T07:00:13.835Z,27.60
2023-01-20T07:02:41.099Z,29.10
2023-01-20T07:05:09.895Z,23.60
2023-01-20T07:07:37.268Z,28.60
2023-01-20T07:10:04.824Z,29.40
2023-01-20T07:12:32.510Z,24.60
2023-01-20T07:14:59.772Z,24.70
2023-01-20T07:17:27.028Z,27.60
2023-01-20T07:19:54.279Z,27.40
2023-01-20T07:22:21.485Z,29.30
2023-01-20T07:24:49.106Z,27.60
2023-01-20T07:27:16.323Z,26.30
2023-01-20T07:29:43.805Z,30.10
2023-01-20T07:32:11.091Z,31.80
2023-01-20T07:34:38.340Z,24.50
2023-01-20T07:37:07.919Z,28.50
2023-01-20T07:39:36.688Z,23.90
2023-01-20T07:42:04.181Z,25.10
2023-01-20T07:44:32.689Z,26.60
2023-01-20T07:46:59.996Z,25.10
2023-01-20T07:49:27.632Z,25.40
2023-01-20T07:51:55.026Z,26.20
2023-01-20T07:54:22.393Z,26.50
2023-01-20T07:56:49.641Z,27.00
2023-01-20T07:59:16.938Z,27.10
2023-01-20T08:01:44.969Z,32.50
2023-01-20T08:04:14.113Z,26.50
2023-01-20T08:06:41.556Z,29.00
2023-01-20T08:09:12.514Z,29.20
2023-01-20T08:11:40.017Z,27.90
2023-01-20T08:14:07.569Z,25.10
2023-01-20T08:16:35.486Z,26.10
2023-01-20T08:19:02.766Z,25.70
2023-01-20T08:21:31.339Z,28.30
2023-01-20T08:23:59.666Z,25.90
2023-01-20T08:26:28.464Z,24.10
2023-01-20T08:28:56.966Z,31.70
2023-01-20T08:31:24.758Z,25.90
2023-01-20T08:33:53.544Z,27.00
2023-01-20T08:36:23.244Z,28.00
2023-01-20T08:38:50.497Z,30.70
2023-01-20T08:41:26.442Z,24.30
2023-01-20T09:02:27.788Z,29.50
2023-01-20T09:04:55.127Z,28.50
2023-01-20T09:07:22.342Z,29.10
2023-01-20T09:09:49.806Z,31.60
2023-01-20T09:12:17.306Z,27.50
2023-01-20T09:14:45.549Z,24.90
2023-01-20T09:17:15.622Z,30.10
2023-01-20T09:19:43.562Z,31.80
2023-01-20T09:22:11.772Z,30.20
2023-01-20T09:24:40.577Z,28.40
2023-01-20T09:27:08.008Z,31.60
2023-01-20T09:29:37.377Z,31.90
2023-01-20T09:32:04.886Z,27.10
2023-01-20T09:34:32.337Z,28.60
2023-01-20T09:37:20.114Z,21.00
2023-01-20T09:40:07.018Z,24.10
2023-01-20T09:43:19.198Z,31.10
2023-01-20T09:46:09.494Z,24.30
2023-01-20T09:49:46.846Z,23.90
2023-01-20T09:52:53.040Z,26.20
2023-01-20T09:55:31.627Z,25.30
2023-01-20T09:58:18.688Z,27.70
2023-01-20T10:00:52.330Z,32.40
2023-01-20T10:03:29.878Z,25.60
2023-01-20T10:05:57.340Z,32.40
2023-01-20T10:08:35.018Z,31.50
2023-01-20T10:11:11.180Z,28.30
2023-01-20T10:13:47.593Z,35.90
2023-01-20T10:16:29.960Z,30.20
2023-01-20T10:19:02.451Z,27.40
2023-01-20T10:43:22.285Z,27.50
2023-01-20T10:46:22.199Z,28.40
2023-01-20T10:48:55.197Z,32.50
2023-01-20T10:51:34.613Z,29.60
2023-01-20T10:54:23.162Z,27.80
2023-01-20T10:56:53.972Z,25.70
2023-01-20T10:59:45.205Z,28.50
2023-01-20T11:02:26.219Z,30.40
2023-01-20T11:04:58.957Z,26.40
2023-01-20T11:07:26.487Z,22.90
2023-01-20T11:09:53.777Z,23.20
2023-01-20T11:12:23.950Z,25.50
2023-01-20T11:14:51.226Z,26.10
2023-01-20T11:17:20.595Z,28.60
2023-01-20T11:19:57.608Z,25.50
2023-01-20T11:22:47.148Z,28.70
2023-01-20T11:25:26.778Z,30.50
2023-01-20T11:28:15.677Z,33.40
2023-01-20T11:30:43.013Z,28.60
2023-01-20T11:33:24.770Z,28.00
2023-01-20T11:36:05.261Z,27.30
2023-01-20T11:38:52.875Z,28.70
2023-01-20T11:41:29.819Z,25.90
2023-01-20T11:43:58.550Z,31.80
2023-01-20T11:46:32.579Z,26.30
2023-01-20T11:49:20.794Z,27.70
2023-01-20T11:51:57.779Z,27.80
2023-01-20T11:54:29.384Z,26.50
2023-01-20T11:57:02.151Z,27.90
2023-01-20T11:59:30.844Z,22.40
2023-01-20T12:01:58.351Z,29.80
2023-01-20T12:04:44.509Z,27.70
2023-01-20T12:07:18.889Z,27.70
2023-01-20T12:09:49.270Z,31.70
2023-01-20T12:12:48.433Z,32.10
2023-01-20T12:15:23.808Z,28.90
2023-01-20T12:18:17.425Z,24.20
2023-01-20T12:21:01.785Z,24.20
2023-01-20T12:23:46.892Z,28.50
2023-01-20T12:26:18.613Z,24.90
2023-01-20T12:28:56.905Z,29.80
2023-01-20T12:31:24.472Z,25.40
2023-01-20T12:34:04.043Z,27.30
2023-01-20T12:36:43.439Z,24.30
2023-01-20T12:39:33.171Z,25.30
2023-01-20T12:42:18.834Z,28.20
2023-01-20T12:44:52.339Z,22.80
2023-01-20T12:47:38.075Z,27.80
2023-01-20T12:50:11.246Z,27.10
2023-01-20T12:55:11.972Z,21.80
2023-01-20T12:57:48.336Z,25.10
2023-01-20T13:00:36.996Z,24.90
2023-01-20T13:03:17.036Z,28.80
2023-01-20T13:06:01.492Z,25.50
2023-01-20T13:08:51.581Z,25.50
2023-01-20T13:11:41.387Z,22.80
2023-01-20T13:14:19.200Z,25.10
2023-01-20T13:17:03.025Z,25.70
2023-01-20T13:19:37.646Z,23.40
2023-01-20T13:22:20.280Z,23.90
2023-01-20T13:24:58.188Z,24.00
2023-01-20T13:27:28.752Z,22.90
2023-01-20T13:29:57.433Z,28.90
2023-01-20T13:32:30.922Z,23.10
2023-01-20T13:34:58.511Z,26.70
2023-01-20T13:37:29.769Z,22.60
2023-01-20T13:40:03.586Z,24.50
2023-01-20T13:42:39.923Z,28.40
2023-01-20T13:45:11.095Z,25.60
2023-01-20T13:48:02.740Z,26.90
2023-01-20T13:50:39.322Z,25.90
2023-01-20T13:53:15.275Z,22.50
2023-01-20T13:55:45.289Z,23.60
2023-01-20T13:58:25.403Z,23.50
2023-01-20T14:01:03.138Z,20.60
2023-01-20T14:03:37.158Z,27.00
2023-01-20T14:06:14.267Z,23.50
2023-01-20T14:08:46.411Z,27.00
2023-01-20T14:11:24.074Z,22.60
2023-01-20T14:14:02.180Z,23.80
2023-01-20T14:16:35.377Z,26.40
2023-01-20T14:19:14.283Z,24.20
2023-01-20T14:21:41.910Z,26.20
2023-01-20T14:35:52.706Z,27.40
2023-01-20T14:38:20.027Z,28.70
2023-01-20T14:40:47.203Z,26.80
2023-01-20T14:43:22.783Z,30.80
2023-01-20T14:45:51.961Z,29.60
2023-01-20T14:48:33.386Z,30.20
2023-01-20T14:51:04.561Z,27.00
2023-01-20T14:53:33.387Z,26.70
2023-01-20T14:56:04.749Z,25.30
2023-01-20T14:58:32.022Z,29.90
2023-01-20T15:01:01.697Z,28.80
2023-01-20T15:03:29.394Z,27.70
2023-01-20T15:05:58.467Z,27.10
2023-01-20T15:08:34.996Z,33.40
2023-01-20T15:11:15.539Z,24.40
2023-01-20T15:14:15.821Z,29.20
2023-01-20T15:16:53.878Z,27.20
2023-01-20T15:19:34.398Z,28.80
2023-01-20T15:22:42.503Z,26.40
2023-01-20T15:25:19.916Z,31.50
2023-01-20T15:27:52.647Z,29.50
2023-01-20T15:30:24.077Z,29.30
2023-01-20T15:32:51.726Z,28.30
2023-01-20T15:35:21.232Z,26.60
2023-01-20T15:37:48.756Z,32.00
2023-01-20T15:40:18.007Z,31.90
2023-01-20T15:42:46.148Z,32.00
2023-01-20T15:45:16.843Z,30.40
2023-01-20T15:47:45.223Z,33.30
2023-01-20T15:50:17.865Z,38.20
2023-01-20T15:52:45.429Z,31.80
2023-01-20T15:55:16.600Z,31.60
2023-01-20T15:57:44.061Z,32.80
2023-01-20T16:00:16.730Z,30.20
2023-01-20T16:02:44.336Z,35.00
2023-01-20T16:05:22.357Z,29.60
2023-01-20T16:07:52.669Z,31.40
2023-01-20T16:10:20.083Z,34.20
2023-01-20T16:12:47.532Z,31.60
2023-01-20T16:15:16.441Z,34.80
2023-01-20T16:17:43.943Z,27.80
2023-01-20T16:20:20.003Z,29.60
2023-01-20T16:22:47.317Z,28.90
2023-01-20T16:25:14.558Z,28.70
2023-01-20T16:27:41.787Z,32.80
2023-01-20T16:30:16.698Z,27.70
2023-01-20T16:32:46.416Z,30.00
2023-01-20T16:35:17.603Z,28.80
2023-01-20T16:37:46.034Z,31.50
2023-01-20T16:40:15.123Z,29.00
2023-01-20T16:42:42.727Z,25.10
2023-01-20T16:45:29.524Z,29.00
2023-01-20T16:47:57.408Z,27.90
2023-01-20T16:50:28.059Z,26.60
2023-01-20T16:52:55.861Z,29.20
2023-01-20T16:55:24.230Z,31.70
2023-01-20T16:57:52.229Z,33.20
2023-01-20T17:00:20.718Z,28.70
2023-01-20T17:02:52.704Z,27.40
2023-01-20T17:05:22.928Z,31.70
2023-01-20T17:07:50.511Z,33.20
2023-01-20T17:10:18.257Z,24.10
2023-01-20T17:12:48.732Z,27.10
2023-01-20T17:15:16.199Z,30.70
2023-01-20T17:17:43.675Z,39.70
2023-01-20T17:20:11.008Z,29.00
2023-01-20T17:22:41.702Z,29.70
2023-01-20T17:25:09.333Z,29.40
2023-01-20T17:27:37.376Z,27.30
2023-01-20T17:30:05.782Z,27.60
2023-01-20T17:32:33.590Z,30.20
2023-01-20T17:35:00.800Z,22.30
2023-01-20T17:37:28.075Z,28.50
2023-01-20T17:39:55.256Z,26.90
2023-01-20T17:42:22.449Z,26.30
2023-01-20T17:44:49.623Z,27.10
2023-01-20T17:47:16.813Z,27.00
2023-01-20T17:49:44.026Z,25.70
2023-01-20T17:52:11.256Z,23.80
2023-01-20T17:54:38.583Z,27.00
2023-01-20T17:57:05.771Z,29.50
2023-01-20T17:59:32.959Z,25.20
2023-01-20T18:02:00.242Z,24.60
2023-01-20T18:04:28.520Z,26.30
2023-01-20T18:06:56.047Z,29.90
2023-01-20T18:09:23.223Z,25.90
2023-01-20T18:12:22.617Z,29.70
2023-01-20T18:14:49.849Z,26.30
2023-01-20T18:17:17.032Z,26.30
2023-01-20T18:19:44.196Z,25.30
2023-01-20T18:22:12.913Z,32.90
2023-01-20T18:24:40.358Z,31.80
2023-01-20T18:27:07.516Z,27.20
2023-01-20T18:29:36.382Z,24.70
2023-01-20T18:32:03.690Z,24.10
2023-01-20T18:34:30.926Z,21.70
2023-01-20T18:36:58.216Z,24.50
2023-01-20T18:39:25.917Z,22.80
2023-01-20T18:41:53.251Z,23.80
2023-01-20T18:44:20.830Z,23.60
2023-01-20T18:46:48.044Z,23.60
2023-01-20T18:49:16.299Z,22.80
2023-01-20T18:51:43.892Z,26.50
2023-01-20T18:54:13.195Z,25.30
2023-01-20T18:56:40.507Z,23.80
2023-01-20T18:59:07.805Z,20.30
2023-01-20T19:01:37.001Z,26.40
2023-01-20T19:04:04.689Z,22.80
2023-01-20T19:06:34.601Z,21.80
2023-01-20T19:09:01.949Z,23.40
2023-01-20T19:11:31.773Z,24.00
2023-01-20T19:13:59.131Z,22.70
2023-01-20T19:16:28.262Z,25.00
2023-01-20T19:19:00.275Z,22.00
2023-01-20T19:21:27.588Z,20.90
2023-01-20T19:23:56.629Z,22.70
2023-01-20T19:26:24.866Z,18.90
2023-01-20T19:28:57.538Z,26.30
2023-01-20T19:31:24.894Z,24.20
2023-01-20T19:33:52.368Z,19.40
2023-01-20T19:36:19.691Z,18.90
2023-01-20T19:38:47.198Z,27.30
2023-01-20T19:41:16.270Z,21.30
2023-01-20T19:43:43.913Z,22.50
2023-01-20T19:46:14.689Z,24.00
2023-01-20T19:48:42.106Z,23.00
2023-01-20T19:51:14.209Z,22.80
2023-01-20T19:53:41.846Z,28.30
2023-01-20T19:56:10.835Z,20.80
2023-01-20T19:58:39.452Z,22.40
2023-01-20T20:01:11.098Z,23.50
2023-01-20T20:03:38.348Z,23.80
2023-01-20T20:06:06.109Z,24.90
2023-01-20T20:08:33.718Z,21.00
2023-01-20T20:11:00.894Z,22.50
2023-01-20T20:13:28.129Z,23.40
2023-01-20T20:16:02.825Z,19.90
2023-01-20T20:18:30.203Z,22.70
2023-01-20T20:20:57.467Z,21.60
2023-01-20T20:23:26.137Z,24.10
2023-01-20T20:25:57.611Z,21.90
2023-01-20T20:28:25.918Z,24.90
2023-01-20T20:30:55.742Z,21.00
2023-01-20T20:33:24.409Z,21.60
2023-01-20T20:35:51.664Z,22.60
2023-01-20T20:38:19.235Z,22.70
2023-01-20T20:40:49.128Z,20.70
2023-01-20T20:43:17.089Z,23.50
2023-01-20T20:45:48.700Z,18.70
2023-01-20T20:48:20.785Z,18.20
2023-01-20T20:50:48.424Z,22.10
2023-01-20T20:53:18.391Z,21.70
2023-01-20T20:55:46.280Z,22.70
2023-01-20T20:58:13.488Z,21.90
2023-01-20T21:00:40.782Z,21.30
2023-01-20T21:03:08.741Z,18.30
2023-01-20T21:05:36.120Z,19.00
2023-01-20T21:08:06.305Z,21.70
2023-01-20T21:10:34.413Z,17.30
2023-01-20T21:13:01.865Z,21.40
2023-01-20T21:15:30.754Z,19.50
2023-01-20T21:17:58.618Z,20.30
2023-01-20T21:20:25.966Z,20.00
2023-01-20T21:22:53.148Z,26.10
2023-01-20T21:25:24.260Z,20.60
2023-01-20T21:27:51.594Z,21.80
2023-01-20T21:30:19.533Z,19.10
2023-01-20T21:32:47.259Z,18.50
2023-01-20T21:35:14.459Z,22.70
2023-01-20T21:37:41.668Z,21.30
2023-01-20T21:40:09.913Z,22.80
2023-01-20T21:42:37.142Z,21.40
2023-01-20T21:45:04.970Z,20.50
2023-01-20T21:47:32.297Z,18.10
2023-01-20T21:50:18.410Z,18.90
2023-01-20T21:52:45.838Z,20.30
2023-01-20T21:55:21.822Z,22.40
2023-01-20T21:57:51.136Z,17.70
2023-01-20T22:00:19.646Z,23.10
2023-01-20T22:02:47.247Z,17.10
2023-01-20T22:05:14.736Z,20.80
2023-01-20T22:07:41.970Z,21.40
2023-01-20T22:10:10.330Z,21.30
2023-01-20T22:12:39.211Z,20.90
2023-01-20T22:15:07.650Z,21.40
2023-01-20T22:17:34.893Z,19.90
2023-01-20T22:20:02.227Z,18.60
2023-01-20T22:22:29.738Z,18.90
2023-01-20T22:24:57.586Z,19.50
2023-01-20T22:27:25.405Z,17.90
2023-01-20T22:29:53.122Z,21.80
2023-01-20T22:32:20.303Z,20.60
2023-01-20T22:34:48.158Z,21.60
2023-01-20T22:37:15.907Z,19.80
2023-01-20T22:39:43.269Z,18.60
2023-01-20T22:42:11.166Z,19.80
2023-01-20T22:44:39.221Z,18.10
2023-01-20T22:47:10.587Z,21.10
2023-01-20T22:49:38.253Z,20.40
2023-01-20T22:52:05.695Z,18.90
2023-01-20T22:54:34.134Z,20.30
2023-01-20T22:57:01.471Z,19.20
2023-01-20T22:59:28.928Z,18.30
2023-01-20T23:01:56.202Z,19.00
2023-01-20T23:04:23.508Z,18.80
2023-01-20T23:06:50.899Z,19.70
2023-01-20T23:09:18.254Z,17.50
2023-01-20T23:11:46.034Z,19.20
2023-01-20T23:14:14.247Z,23.30
2023-01-20T23:16:42.438Z,20.80
2023-01-20T23:19:09.826Z,17.30
2023-01-20T23:21:37.441Z,19.00
2023-01-20T23:24:05.257Z,21.50
2023-01-20T23:26:34.499Z,16.60
2023-01-20T23:29:02.475Z,17.00
2023-01-20T23:31:33.604Z,17.60
2023-01-20T23:34:01.038Z,20.40
2023-01-20T23:36:28.274Z,18.60
2023-01-20T23:38:56.168Z,15.90
2023-01-20T23:41:23.531Z,19.10
2023-01-20T23:43:50.810Z,17.20
2023-01-20T23:46:18.108Z,14.80
2023-01-20T23:48:47.086Z,16.80
2023-01-20T23:51:14.590Z,14.10
2023-01-20T23:53:42.101Z,21.30
2023-01-20T23:56:18.704Z,17.30
2023-01-20T23:58:46.275Z,14.40
